Time;durP1;ratioP1;P1;durP2;ratioP2;P2;SDS_P1;SDS_P2;PMS_P1;PMS_P2;Temp;Humidity;BMP_temperature;BMP_pressure;BME280_temperature;BME280_humidity;BME280_pressure;Samples;Min_cycle;Max_cycle;Signal;HPM_P1;HPM_P2
2021/11/15 00:00:23;;;;;;;;;31.50;29.25;;;;;11.63;66.30;102202.38;5080353;27;45298;-86
2021/11/15 00:02:53;;;;;;;;;35.75;30.50;;;;;11.61;66.46;102190.97;5080681;28;46243;-87
2021/11/15 00:08:39;;;;;;;;;37.00;30.00;;;;;11.59;66.31;102204.16;5066701;28;45505;-88
2021/11/15 00:11:24;;;;;;;;;;;;;;;;;;;;;
2021/11/15 00:13:55;;;;;;;;;33.00;29.00;;;;;11.53;66.43;102206.91;5082254;27;73979;-88
2021/11/15 00:16:20;;;;;;;;;31.25;27.75;;;;;11.51;66.56;102198.16;5074509;28;45749;-88
2021/11/15 00:18:56;;;;;;;;;33.75;29.50;;;;;11.50;66.55;102196.41;5080653;28;45331;-88
2021/11/15 00:21:27;;;;;;;;;32.25;27.75;;;;;11.47;66.43;102195.56;5077457;28;45408;-87
2021/11/15 00:23:52;;;;;;;;;32.25;29.75;;;;;11.42;66.39;102191.22;5080597;28;45517;-85
2021/11/15 00:26:18;;;;;;;;;29.75;27.75;;;;;11.38;66.73;102189.53;5080072;28;45140;-84
2021/11/15 00:28:49;;;;;;;;;34.50;31.25;;;;;11.37;66.35;102199.19;5080775;28;45256;-84
2021/11/15 00:31:14;;;;;;;;;33.00;29.75;;;;;11.36;66.53;102206.22;5079401;27;45595;-83
2021/11/15 00:33:40;;;;;;;;;35.00;30.50;;;;;11.31;66.59;102205.41;5080677;28;45433;-83
2021/11/15 00:36:05;;;;;;;;;41.00;32.75;;;;;11.31;66.17;102204.56;5080317;28;45323;-83
2021/11/15 00:38:31;;;;;;;;;34.25;29.75;;;;;11.28;66.59;102205.47;5080798;28;45228;-83
2021/11/15 00:40:57;;;;;;;;;34.75;30.00;;;;;11.29;66.47;102203.66;5066306;27;45446;-84
2021/11/15 00:43:23;;;;;;;;;36.25;32.50;;;;;11.21;66.60;102202.00;5063703;28;46926;-84
2021/11/15 00:45:48;;;;;;;;;34.25;28.25;;;;;11.22;66.66;102205.50;5075573;27;45356;-83
2021/11/15 00:48:13;;;;;;;;;33.25;30.25;;;;;11.21;66.46;102206.44;5080475;27;45276;-83
2021/11/15 00:50:40;;;;;;;;;34.00;31.00;;;;;11.19;66.75;102201.16;5078993;27;45379;-86
2021/11/15 00:53:16;;;;;;;;;;;;;;;;;;;;;
2021/11/15 00:56:36;;;;;;;;;33.00;29.00;;;;;11.18;66.53;102204.69;5079332;28;73037;-87
2021/11/15 00:59:02;;;;;;;;;37.75;31.00;;;;;11.14;66.46;102198.59;5067808;28;45505;-85
2021/11/15 01:01:27;;;;;;;;;37.00;29.50;;;;;11.16;66.64;102211.72;5080069;28;45438;-82
2021/11/15 01:03:53;;;;;;;;;27.25;25.50;;;;;11.12;66.62;102202.13;5078905;27;45703;-82
2021/11/15 01:06:19;;;;;;;;;31.75;28.25;;;;;11.11;66.53;102198.63;5080162;28;45224;-83
2021/11/15 01:08:44;;;;;;;;;31.25;29.00;;;;;11.12;66.66;102210.00;5079442;28;45297;-82
2021/11/15 01:11:10;;;;;;;;;34.75;30.25;;;;;11.10;66.44;102211.81;5079667;28;45453;-82
2021/11/15 01:13:36;;;;;;;;;33.50;29.50;;;;;11.07;66.49;102206.56;5079387;28;45276;-81
2021/11/15 01:16:03;;;;;;;;;32.25;27.25;;;;;11.06;66.43;102212.72;5061081;28;45767;-81
2021/11/15 01:18:28;;;;;;;;;34.50;29.50;;;;;11.01;66.46;102208.38;5078037;28;45536;-88
2021/11/15 01:20:54;;;;;;;;;28.25;25.75;;;;;11.01;66.45;102203.09;5079753;28;45288;-83
2021/11/15 01:23:19;;;;;;;;;30.75;29.00;;;;;11.01;66.63;102204.91;5061341;28;48144;-82
2021/11/15 01:25:45;;;;;;;;;35.75;29.75;;;;;10.99;66.58;102209.28;5061342;28;45304;-81
2021/11/15 01:28:11;;;;;;;;;38.75;33.75;;;;;10.96;66.33;102199.69;5078046;28;45245;-81
2021/11/15 01:30:38;;;;;;;;;37.75;31.75;;;;;10.94;66.93;102206.69;5061464;28;47321;-82
2021/11/15 01:33:04;;;;;;;;;35.50;32.50;;;;;10.95;66.28;102204.94;5061228;27;47174;-82
2021/11/15 01:35:30;;;;;;;;;35.75;32.50;;;;;10.93;66.58;102199.72;5060846;28;45736;-82
2021/11/15 01:37:56;;;;;;;;;33.00;29.25;;;;;10.91;66.61;102204.97;5061675;28;45462;-82
2021/11/15 01:40:25;;;;;;;;;36.00;30.25;;;;;10.88;66.50;102206.78;5061203;28;46212;-82
2021/11/15 01:42:52;;;;;;;;;34.50;32.00;;;;;10.87;66.47;102203.28;5078646;28;46250;-82
2021/11/15 01:45:23;;;;;;;;;35.25;29.50;;;;;10.85;66.59;102198.91;5077297;28;45937;-83
2021/11/15 01:47:55;;;;;;;;;33.25;30.25;;;;;10.85;66.60;102204.16;5079032;28;45433;-83
2021/11/15 01:50:21;;;;;;;;;33.50;29.25;;;;;10.82;66.46;102202.44;5079439;28;45354;-83
2021/11/15 01:52:48;;;;;;;;;30.00;29.25;;;;;10.83;66.80;102211.22;5060971;28;46394;-84
2021/11/15 01:55:14;;;;;;;;;32.25;29.00;;;;;10.81;66.77;102216.50;5077968;28;45365;-83
2021/11/15 01:57:42;;;;;;;;;34.25;28.50;;;;;10.80;66.15;102209.47;5067551;28;45287;-83
2021/11/15 02:00:12;;;;;;;;;33.25;30.25;;;;;10.78;66.15;102206.00;5079443;28;45287;-84
2021/11/15 02:02:38;;;;;;;;;28.25;25.25;;;;;10.74;66.67;102207.78;5079336;28;46438;-84
2021/11/15 02:05:05;;;;;;;;;33.75;29.50;;;;;10.71;66.54;102212.22;5079175;27;45418;-83
2021/11/15 02:07:31;;;;;;;;;39.50;32.75;;;;;10.70;66.87;102213.97;5078548;28;45505;-83
2021/11/15 02:09:56;;;;;;;;;33.50;30.00;;;;;10.68;66.72;102210.47;5079049;28;45409;-84
2021/11/15 02:12:22;;;;;;;;;37.25;31.25;;;;;10.67;66.83;102203.47;5058291;28;47889;-83
2021/11/15 02:14:47;;;;;;;;;38.25;33.00;;;;;10.66;66.42;102207.00;5077699;28;45202;-84
2021/11/15 02:17:13;;;;;;;;;34.75;31.75;;;;;10.63;66.82;102213.16;5081764;27;45271;-84
2021/11/15 02:19:40;;;;;;;;;37.50;31.75;;;;;10.61;66.31;102212.31;5082641;28;45303;-83
2021/11/15 02:22:05;;;;;;;;;33.25;30.25;;;;;10.58;66.78;102210.56;5082379;27;45477;-84
2021/11/15 02:24:31;;;;;;;;;38.75;31.50;;;;;10.57;66.75;102203.56;5082705;27;45669;-84
2021/11/15 02:26:56;;;;;;;;;35.25;29.00;;;;;10.55;66.78;102207.09;5080258;27;45545;-84
2021/11/15 02:29:29;;;;;;;;;38.25;33.50;;;;;10.52;66.75;102210.63;5082290;27;45322;-85
2021/11/15 02:32:04;;;;;;;;;38.75;32.50;;;;;10.48;66.99;102206.25;5080658;28;45399;-85
2021/11/15 02:34:37;;;;;;;;;42.50;34.00;;;;;10.46;66.67;102195.75;5082282;27;45826;-85
2021/11/15 02:37:05;;;;;;;;;45.00;36.25;;;;;10.43;66.70;102194.91;5068852;27;45137;-85
2021/11/15 02:39:30;;;;;;;;;42.25;33.00;;;;;10.41;66.84;102202.81;5082304;28;45349;-82
2021/11/15 02:41:56;;;;;;;;;37.75;33.75;;;;;10.43;66.80;102206.28;5081534;27;45434;-82
2021/11/15 02:44:21;;;;;;;;;43.75;35.00;;;;;10.38;66.76;102199.31;5082331;27;45244;-82
2021/11/15 02:46:47;;;;;;;;;39.25;33.50;;;;;10.37;67.12;102206.31;5081391;27;45390;-82
2021/11/15 02:49:13;;;;;;;;;43.50;33.00;;;;;10.35;66.73;102201.09;5082093;28;45441;-82
2021/11/15 02:51:38;;;;;;;;;42.00;33.25;;;;;10.34;67.06;102211.63;5082012;27;45595;-83
2021/11/15 02:54:04;;;;;;;;;36.00;33.00;;;;;10.30;67.13;102205.50;5063052;27;45590;-83
2021/11/15 02:56:30;;;;;;;;;39.00;33.50;;;;;10.32;67.22;102216.03;5082031;27;45433;-85
2021/11/15 02:58:55;;;;;;;;;42.25;34.50;;;;;10.28;67.05;102206.41;5082206;27;45241;-86
2021/11/15 03:01:22;;;;;;;;;40.00;33.00;;;;;10.29;66.92;102214.28;5078496;28;45202;-84
2021/11/15 03:03:47;;;;;;;;;44.75;34.25;;;;;10.23;66.53;102214.31;5056523;27;45244;-85
2021/11/15 03:06:13;;;;;;;;;46.75;36.50;;;;;10.18;66.96;102208.22;5082037;28;45312;-82
2021/11/15 03:08:39;;;;;;;;;43.75;35.50;;;;;10.15;67.30;102217.00;5081893;27;45228;-81
2021/11/15 03:11:06;;;;;;;;;46.25;35.00;;;;;10.08;67.15;102208.31;5081392;27;45314;-81
2021/11/15 03:13:39;;;;;;;;;41.50;33.00;;;;;10.06;67.32;102206.56;5080486;28;46003;-81
2021/11/15 03:16:05;;;;;;;;;47.50;35.50;;;;;10.04;67.19;102206.59;5081993;28;45424;-81
2021/11/15 03:18:34;;;;;;;;;39.00;32.75;;;;;10.05;67.18;102210.09;5063254;28;46487;-82
2021/11/15 03:21:15;;;;;;;;;41.75;34.00;;;;;10.04;67.42;102203.97;5081761;28;46029;-83
2021/11/15 03:23:43;;;;;;;;;43.25;35.00;;;;;10.05;67.26;102210.09;5080698;27;45479;-82
2021/11/15 03:26:09;;;;;;;;;42.25;32.25;;;;;10.06;67.57;102207.44;5080457;28;45406;-82
2021/11/15 03:28:39;;;;;;;;;48.50;36.25;;;;;10.07;67.54;102222.34;5081435;28;45393;-82
2021/11/15 03:31:30;;;;;;;;;43.75;35.25;;;;;10.13;67.37;102218.78;5077075;28;46278;-81
2021/11/15 03:34:02;;;;;;;;;40.75;34.50;;;;;10.12;67.39;102219.69;5075326;27;45264;-82
2021/11/15 03:36:28;;;;;;;;;38.00;30.00;;;;;10.17;67.35;102214.38;5081684;28;45347;-81
2021/11/15 03:38:55;;;;;;;;;42.50;36.25;;;;;10.17;67.05;102211.75;5081307;28;45403;-80
2021/11/15 03:41:34;;;;;;;;;45.25;36.50;;;;;10.15;67.00;102208.28;5080070;27;45281;-84
2021/11/15 03:44:00;;;;;;;;;42.25;35.00;;;;;10.15;67.06;102205.66;5079919;27;45287;-84
2021/11/15 03:46:26;;;;;;;;;48.25;38.00;;;;;10.16;67.15;102217.88;5081171;27;45416;-84
2021/11/15 03:48:52;;;;;;;;;50.50;37.00;;;;;10.15;66.92;102213.53;5077266;27;45379;-84
2021/11/15 03:51:19;;;;;;;;;46.75;37.50;;;;;10.11;66.99;102217.91;5071734;28;46130;-83
2021/11/15 03:53:45;;;;;;;;;48.50;36.50;;;;;10.10;67.22;102216.19;5081116;28;45775;-83
2021/11/15 03:56:15;;;;;;;;;44.50;36.25;;;;;10.09;66.88;102217.94;5081182;28;45346;-83
2021/11/15 03:58:42;;;;;;;;;50.25;38.75;;;;;10.09;67.13;102209.19;5080097;27;45548;-82
2021/11/15 04:01:10;;;;;;;;;47.25;37.25;;;;;10.11;67.09;102216.19;5069887;27;47231;-83
2021/11/15 04:03:38;;;;;;;;;51.25;39.75;;;;;10.12;67.11;102211.81;5080989;28;45340;-82
2021/11/15 04:06:21;;;;;;;;;47.00;40.00;;;;;10.15;67.18;102213.53;5081026;28;45220;-83
2021/11/15 04:08:46;;;;;;;;;48.50;37.75;;;;;10.09;67.06;102204.81;5079562;27;45287;-83
2021/11/15 04:11:12;;;;;;;;;52.00;37.25;;;;;10.08;67.11;102210.94;5080546;28;45404;-81
2021/11/15 04:13:41;;;;;;;;;46.75;37.00;;;;;10.08;67.03;102208.31;5080416;28;45267;-82
2021/11/15 04:16:10;;;;;;;;;48.25;35.00;;;;;10.05;67.22;102213.56;5081032;28;45425;-82
2021/11/15 04:18:43;;;;;;;;;42.50;35.50;;;;;10.07;67.16;102209.22;5080511;28;45205;-82
2021/11/15 04:21:11;;;;;;;;;43.50;36.00;;;;;10.06;67.18;102217.97;5068255;28;45594;-82
2021/11/15 04:23:36;;;;;;;;;46.50;37.00;;;;;10.07;67.00;102211.84;5080620;28;45290;-82
2021/11/15 04:26:02;;;;;;;;;47.00;37.25;;;;;10.07;67.14;102214.47;5062114;28;45478;-83
2021/11/15 04:28:28;;;;;;;;;54.50;39.75;;;;;10.06;67.11;102215.34;5062203;28;47164;-82
2021/11/15 04:30:53;;;;;;;;;47.00;36.75;;;;;10.04;67.19;102218.84;5059217;28;47508;-82
2021/11/15 04:33:19;;;;;;;;;47.75;35.75;;;;;10.02;66.79;102209.22;5068697;27;45275;-82
2021/11/15 04:35:45;;;;;;;;;47.75;36.50;;;;;10.00;67.16;102200.47;5075146;28;45493;-85
2021/11/15 04:38:10;;;;;;;;;51.75;40.00;;;;;10.01;67.07;102206.59;5061888;28;47045;-84
2021/11/15 04:40:37;;;;;;;;;47.75;38.00;;;;;10.02;67.10;102211.00;5078670;28;45461;-85
2021/11/15 04:43:03;;;;;;;;;48.25;36.50;;;;;10.02;66.98;102206.59;5079858;27;45386;-85
2021/11/15 04:45:29;;;;;;;;;52.50;40.75;;;;;9.98;67.15;102209.25;5079811;28;45312;-83
2021/11/15 04:47:55;;;;;;;;;48.75;38.50;;;;;9.93;67.40;102211.91;5075750;28;46216;-84
2021/11/15 04:50:20;;;;;;;;;51.50;39.75;;;;;9.90;66.75;102201.44;5079711;27;45951;-81
2021/11/15 04:52:45;;;;;;;;;43.50;32.50;;;;;9.89;67.38;102207.56;5062116;28;45182;-81
2021/11/15 04:55:13;;;;;;;;;51.00;40.25;;;;;9.88;67.65;102204.06;5079109;28;46915;-81
2021/11/15 04:57:39;;;;;;;;;53.25;40.50;;;;;9.86;67.53;102205.81;5079933;28;45732;-81
2021/11/15 05:00:08;;;;;;;;;48.00;35.50;;;;;9.88;67.51;102196.19;5080022;28;45425;-81
2021/11/15 05:02:34;;;;;;;;;48.00;37.50;;;;;9.87;67.30;102188.31;5080191;27;45790;-84
2021/11/15 05:04:59;;;;;;;;;49.25;40.25;;;;;9.91;67.46;102197.91;5076244;27;45755;-84
2021/11/15 05:07:25;;;;;;;;;51.50;38.25;;;;;9.89;67.46;102197.94;5079899;27;45508;-82
2021/11/15 05:09:50;;;;;;;;;45.00;37.25;;;;;9.86;67.42;102197.94;5080003;28;45500;-82
2021/11/15 05:12:15;;;;;;;;;47.00;37.00;;;;;9.86;67.25;102197.94;5079454;28;45232;-82
2021/11/15 05:14:41;;;;;;;;;46.50;37.00;;;;;9.90;67.36;102194.41;5078704;28;45414;-82
2021/11/15 05:17:06;;;;;;;;;48.25;37.25;;;;;9.93;67.20;102201.41;5079634;28;45422;-82
2021/11/15 05:19:32;;;;;;;;;46.75;37.25;;;;;9.93;67.20;102193.53;5061413;28;46218;-84
2021/11/15 05:21:57;;;;;;;;;49.50;38.25;;;;;9.94;67.23;102197.91;5080088;28;45228;-85
2021/11/15 05:24:23;;;;;;;;;50.00;38.00;;;;;9.95;67.20;102197.00;5079120;28;45172;-83
2021/11/15 05:26:48;;;;;;;;;49.25;34.75;;;;;9.93;67.13;102192.63;5078183;28;45303;-83
2021/11/15 05:29:14;;;;;;;;;48.50;38.75;;;;;9.95;67.28;102197.00;5079653;28;45202;-83
2021/11/15 05:31:40;;;;;;;;;47.25;37.75;;;;;9.93;67.22;102204.03;5077569;28;45746;-83
2021/11/15 05:34:06;;;;;;;;;48.50;38.75;;;;;9.89;67.57;102200.56;5079832;28;45414;-83
2021/11/15 05:36:31;;;;;;;;;54.25;40.50;;;;;9.87;67.31;102201.44;5079747;28;45648;-82
2021/11/15 05:38:58;;;;;;;;;48.25;37.25;;;;;9.88;67.22;102214.56;5079822;28;45621;-82
2021/11/15 05:41:24;;;;;;;;;47.00;37.75;;;;;9.84;67.24;102202.34;5078720;27;45374;-84
2021/11/15 05:43:49;;;;;;;;;51.25;38.75;;;;;9.85;67.21;102197.97;5066079;28;45509;-86
2021/11/15 05:46:15;;;;;;;;;46.50;37.50;;;;;9.84;67.59;102204.97;5078211;27;45454;-84
2021/11/15 05:48:40;;;;;;;;;48.75;39.25;;;;;9.82;67.60;102208.47;5050111;28;45714;-84
2021/11/15 05:51:06;;;;;;;;;47.75;38.25;;;;;9.78;67.47;102207.63;5080771;27;45232;-85
2021/11/15 05:53:35;;;;;;;;;43.50;37.00;;;;;9.79;67.76;102212.00;5082927;28;45632;-88
2021/11/15 05:56:05;;;;;;;;;46.50;37.00;;;;;9.74;67.62;102211.16;5082474;27;45344;-89
2021/11/15 05:58:38;;;;;;;;;52.75;38.00;;;;;9.68;67.58;102215.56;5080456;27;48044;-89
2021/11/15 06:01:04;;;;;;;;;44.00;35.75;;;;;9.62;67.79;102214.72;5064295;28;45418;-89
2021/11/15 06:03:30;;;;;;;;;43.50;35.75;;;;;9.60;67.99;102225.25;5081691;28;46028;-87
2021/11/15 06:05:58;;;;;;;;;48.25;36.50;;;;;9.59;68.02;102228.72;5091919;27;45946;-89
2021/11/15 06:08:24;;;;;;;;;47.00;36.25;;;;;9.60;67.91;102230.50;5081459;27;46309;-88
2021/11/15 06:10:49;;;;;;;;;57.25;40.00;;;;;9.61;67.91;102221.72;5063763;28;45415;-89
2021/11/15 06:13:17;;;;;;;;;44.75;35.25;;;;;9.64;67.68;102236.59;5082999;27;45275;-91
2021/11/15 06:15:48;;;;;;;;;40.50;35.00;;;;;9.62;68.03;102227.84;5082039;27;45449;-89
2021/11/15 06:18:17;;;;;;;;;44.25;36.00;;;;;9.59;68.07;102226.09;5082520;28;45276;-88
2021/11/15 06:20:44;;;;;;;;;45.00;34.75;;;;;9.59;68.06;102226.09;5082636;27;45260;-86
2021/11/15 06:23:28;;;;;;;;;47.25;37.00;;;;;9.63;67.95;102240.09;5082826;27;45513;-87
2021/11/15 06:25:56;;;;;;;;;46.25;37.00;;;;;9.64;68.22;102240.09;5081008;28;45592;-87
2021/11/15 06:28:22;;;;;;;;;46.25;36.00;;;;;9.67;67.64;102242.72;5081960;27;45779;-87
2021/11/15 06:31:05;;;;;;;;;;;;;;;;;;;;;
2021/11/15 06:33:52;;;;;;;;;44.00;35.00;;;;;9.68;67.91;102239.19;5081581;27;69221;-87
2021/11/15 06:36:22;;;;;;;;;42.25;34.50;;;;;9.68;67.87;102244.44;5080261;28;45659;-84
2021/11/15 06:38:47;;;;;;;;;45.75;35.75;;;;;9.68;67.67;102240.94;5054242;28;48024;-84
2021/11/15 06:41:13;;;;;;;;;46.25;35.00;;;;;9.68;67.92;102246.19;5080004;27;45509;-83
2021/11/15 06:43:38;;;;;;;;;48.00;35.00;;;;;9.67;67.70;102250.59;5081996;27;45396;-83
2021/11/15 06:46:04;;;;;;;;;41.50;34.50;;;;;9.63;67.37;102255.84;5081534;27;45445;-85
2021/11/15 06:48:33;;;;;;;;;37.50;33.75;;;;;9.61;67.60;102254.97;5082086;28;45375;-84
2021/11/15 06:50:58;;;;;;;;;45.00;36.50;;;;;9.52;67.81;102250.63;5082026;27;45191;-87
2021/11/15 06:53:24;;;;;;;;;46.25;36.50;;;;;9.51;67.84;102256.75;5059114;28;45796;-83
2021/11/15 06:55:49;;;;;;;;;38.75;31.25;;;;;9.46;68.02;102254.16;5078906;28;45500;-83
2021/11/15 06:58:15;;;;;;;;;49.00;35.75;;;;;9.45;67.83;102253.31;5067384;27;46029;-83
2021/11/15 07:00:40;;;;;;;;;37.50;33.00;;;;;9.44;68.46;102256.78;5080769;27;45417;-83
2021/11/15 07:03:05;;;;;;;;;46.50;34.25;;;;;9.47;68.69;102261.16;5082059;27;45535;-83
2021/11/15 07:05:31;;;;;;;;;41.00;33.75;;;;;9.47;68.63;102260.28;5082689;27;45330;-83
2021/11/15 07:07:57;;;;;;;;;41.50;34.00;;;;;9.45;67.99;102266.44;5086614;27;45485;-82
2021/11/15 07:10:23;;;;;;;;;40.75;34.25;;;;;9.44;68.11;102275.16;5075346;27;45367;-83
2021/11/15 07:12:49;;;;;;;;;40.50;31.00;;;;;9.42;68.06;102279.56;5059692;28;45470;-83
2021/11/15 07:15:16;;;;;;;;;47.25;35.50;;;;;9.40;68.19;102278.69;5078506;27;45592;-83
2021/11/15 07:17:42;;;;;;;;;40.75;34.00;;;;;9.41;68.53;102280.41;5077036;28;45510;-81
2021/11/15 07:20:08;;;;;;;;;46.50;35.50;;;;;9.42;67.61;102282.19;5076574;28;46118;-82
2021/11/15 07:22:34;;;;;;;;;45.50;35.50;;;;;9.40;68.29;102281.31;5079060;28;45220;-81
2021/11/15 07:25:00;;;;;;;;;36.75;31.50;;;;;9.43;68.30;102281.28;5080007;27;45451;-82
2021/11/15 07:27:27;;;;;;;;;47.25;34.50;;;;;9.39;68.29;102283.91;5078454;28;45583;-82
2021/11/15 07:29:52;;;;;;;;;43.50;33.50;;;;;9.37;68.41;102286.56;5079442;28;45453;-82
2021/11/15 07:32:18;;;;;;;;;42.75;35.25;;;;;9.40;68.35;102286.56;5075394;28;45406;-81
2021/11/15 07:34:43;;;;;;;;;44.50;35.25;;;;;9.45;68.46;102291.78;5071616;28;45927;-82
2021/11/15 07:37:09;;;;;;;;;47.25;36.75;;;;;9.46;68.63;102304.03;5076896;27;46067;-82
2021/11/15 07:39:45;;;;;;;;;37.75;31.75;;;;;9.44;68.09;102295.28;5079403;27;45540;-81
2021/11/15 07:42:15;;;;;;;;;41.25;34.00;;;;;9.43;68.11;102304.91;5080431;28;45299;-82
2021/11/15 07:44:41;;;;;;;;;41.75;33.75;;;;;9.44;67.97;102306.66;5078685;27;45489;-81
2021/11/15 07:47:07;;;;;;;;;39.50;32.00;;;;;9.43;68.22;102306.69;5076391;27;46557;-81
2021/11/15 07:49:33;;;;;;;;;42.50;35.00;;;;;9.44;68.31;102297.91;5080415;28;45304;-82
2021/11/15 07:51:59;;;;;;;;;39.50;30.25;;;;;9.49;68.06;102311.00;5080340;27;45287;-82
2021/11/15 07:54:25;;;;;;;;;40.00;32.00;;;;;9.51;67.70;102306.63;5081428;28;45457;-82
2021/11/15 07:56:50;;;;;;;;;44.75;33.50;;;;;9.52;67.83;102311.91;5069143;28;45538;-81
2021/11/15 07:59:16;;;;;;;;;35.25;29.50;;;;;9.55;68.14;102313.63;5078120;28;45237;-81
2021/11/15 08:01:41;;;;;;;;;34.50;30.50;;;;;9.57;67.88;102317.13;5080677;28;45586;-81
2021/11/15 08:04:07;;;;;;;;;39.25;34.00;;;;;9.58;67.85;102310.97;5078455;28;47039;-83
2021/11/15 08:06:32;;;;;;;;;41.75;31.75;;;;;9.63;67.78;102316.25;5079848;28;46019;-83
2021/11/15 08:08:57;;;;;;;;;42.25;35.75;;;;;9.63;67.58;102321.50;5072480;27;45403;-83
2021/11/15 08:11:28;;;;;;;;;36.75;31.75;;;;;9.66;67.55;102318.84;5077939;27;45219;-82
2021/11/15 08:13:54;;;;;;;;;44.50;34.00;;;;;9.66;67.69;102317.09;5060821;28;46574;-83
2021/11/15 08:16:19;;;;;;;;;33.75;31.25;;;;;9.67;67.37;102316.22;5075204;28;46875;-83
2021/11/15 08:18:44;;;;;;;;;39.75;32.00;;;;;9.65;67.80;102314.47;5072932;28;47275;-83
2021/11/15 08:21:13;;;;;;;;;38.75;32.50;;;;;9.69;67.59;102310.94;5070784;28;45634;-84
2021/11/15 08:23:47;;;;;;;;;37.50;31.50;;;;;9.74;67.81;102310.94;5069797;27;46444;-84
2021/11/15 08:26:31;;;;;;;;;44.25;34.75;;;;;9.81;67.83;102317.03;5072590;28;46363;-83
2021/11/15 08:29:01;;;;;;;;;42.50;32.25;;;;;9.83;67.75;102315.28;5093938;27;46017;-84
2021/11/15 08:31:28;;;;;;;;;35.00;32.00;;;;;9.88;67.96;102319.63;5072271;27;45427;-83
2021/11/15 08:33:54;;;;;;;;;37.50;33.50;;;;;9.93;67.28;102316.97;5080529;28;45508;-83
2021/11/15 08:36:19;;;;;;;;;38.50;34.00;;;;;9.95;67.63;102317.84;5074817;27;45541;-83
2021/11/15 08:38:54;;;;;;;;;38.25;33.00;;;;;9.95;67.37;102312.56;5058706;27;46551;-83
2021/11/15 08:41:23;;;;;;;;;42.25;34.25;;;;;9.99;67.35;102318.72;5069350;28;45700;-87
2021/11/15 08:43:50;;;;;;;;;42.75;33.00;;;;;9.99;67.24;102318.72;5073234;28;45434;-83
2021/11/15 08:46:15;;;;;;;;;43.50;32.75;;;;;10.00;67.16;102320.47;5076458;27;45520;-83
2021/11/15 08:48:44;;;;;;;;;41.75;34.50;;;;;10.01;67.40;102322.19;5077647;27;45500;-83
2021/11/15 08:51:12;;;;;;;;;42.25;32.00;;;;;10.07;67.36;102327.44;5069412;28;45942;-83
2021/11/15 08:53:40;;;;;;;;;39.00;32.75;;;;;10.11;67.54;102323.00;5067385;28;46198;-83
2021/11/15 08:56:06;;;;;;;;;41.50;34.25;;;;;10.12;67.60;102311.63;5069401;28;46300;-83
2021/11/15 08:58:32;;;;;;;;;33.50;31.00;;;;;10.15;67.22;102321.25;5066891;27;45532;-84
2021/11/15 09:00:58;;;;;;;;;40.00;33.00;;;;;10.10;67.08;102322.13;5075143;28;45514;-84
2021/11/15 09:03:23;;;;;;;;;37.50;31.50;;;;;10.10;67.18;102321.28;5078438;28;45319;-83
2021/11/15 09:05:50;;;;;;;;;47.25;35.50;;;;;10.11;67.25;102315.13;5076366;27;46490;-83
2021/11/15 09:08:17;;;;;;;;;39.25;33.25;;;;;10.12;67.59;102309.84;5074162;27;45986;-83
2021/11/15 09:10:42;;;;;;;;;36.00;32.75;;;;;10.17;67.63;102314.25;5059422;28;45319;-83
2021/11/15 09:13:08;;;;;;;;;40.00;32.50;;;;;10.19;67.38;102312.47;5072614;27;45550;-83
2021/11/15 09:15:33;;;;;;;;;39.25;34.00;;;;;10.24;67.21;102319.44;5051152;28;47951;-82
2021/11/15 09:17:59;;;;;;;;;41.25;32.25;;;;;10.25;67.56;102320.31;5068113;28;45484;-82
2021/11/15 09:20:25;;;;;;;;;47.00;34.25;;;;;10.21;67.28;102315.97;5069995;28;45680;-82
2021/11/15 09:22:52;;;;;;;;;37.50;32.00;;;;;10.21;67.16;102315.97;5068602;28;46384;-81
2021/11/15 09:25:17;;;;;;;;;37.50;32.75;;;;;10.18;66.93;102308.97;5067998;28;46140;-82
2021/11/15 09:27:43;;;;;;;;;43.75;34.50;;;;;10.18;67.21;102311.59;5068391;28;45619;-82
2021/11/15 09:30:11;;;;;;;;;41.75;34.00;;;;;10.17;67.35;102315.13;5070781;27;45520;-82
2021/11/15 09:32:38;;;;;;;;;49.00;35.25;;;;;10.17;67.36;102314.25;5068558;27;45592;-82
2021/11/15 09:35:05;;;;;;;;;47.25;36.50;;;;;10.15;67.22;102302.88;5068773;28;46731;-82
2021/11/15 09:37:30;;;;;;;;;42.00;34.75;;;;;10.18;67.42;102302.81;5051258;28;46382;-82
2021/11/15 09:39:56;;;;;;;;;40.50;33.50;;;;;10.21;67.37;102301.06;5075435;27;45588;-82
2021/11/15 09:42:22;;;;;;;;;45.25;35.00;;;;;10.26;67.38;102310.66;5089285;27;45371;-82
2021/11/15 09:44:48;;;;;;;;;41.50;34.25;;;;;10.27;66.80;102310.69;5078126;27;45435;-82
2021/11/15 09:47:13;;;;;;;;;49.25;35.25;;;;;10.29;67.41;102310.66;5071841;28;45396;-83
2021/11/15 09:49:39;;;;;;;;;39.75;34.25;;;;;10.27;67.50;102313.31;5073812;27;45676;-83
2021/11/15 09:52:06;;;;;;;;;43.00;36.00;;;;;10.30;67.45;102317.63;5067989;28;45482;-83
2021/11/15 09:54:31;;;;;;;;;42.50;35.75;;;;;10.28;67.35;102312.41;5078394;27;47897;-83
2021/11/15 09:56:57;;;;;;;;;41.75;34.25;;;;;10.28;67.48;102317.66;5077291;28;45366;-83
2021/11/15 09:59:25;;;;;;;;;66.75;46.00;;;;;10.32;67.60;102329.91;5064478;28;45263;-83
2021/11/15 10:01:53;;;;;;;;;46.00;34.75;;;;;10.32;67.26;102318.53;5078519;27;45290;-82
2021/11/15 10:04:19;;;;;;;;;48.75;35.50;;;;;10.31;67.42;102322.91;5078087;27;46388;-82
2021/11/15 10:06:46;;;;;;;;;47.75;35.00;;;;;10.29;67.58;102335.19;5076678;28;46030;-82
2021/11/15 10:09:12;;;;;;;;;51.25;39.00;;;;;10.31;67.24;102333.41;5064482;27;45242;-82
2021/11/15 10:11:42;;;;;;;;;47.75;35.50;;;;;10.30;67.34;102329.03;5077052;27;47483;-82
2021/11/15 10:14:08;;;;;;;;;43.50;36.50;;;;;10.33;67.63;102326.41;5078106;27;46244;-82
2021/11/15 10:16:34;;;;;;;;;49.50;36.50;;;;;10.35;67.54;102324.63;5075092;27;45478;-82
2021/11/15 10:19:02;;;;;;;;;46.50;34.75;;;;;10.41;67.63;102321.09;5077478;28;46372;-82
2021/11/15 10:21:32;;;;;;;;;41.25;35.00;;;;;10.40;67.38;102319.34;5078390;28;45474;-82
2021/11/15 10:24:13;;;;;;;;;40.00;35.50;;;;;10.40;67.20;102323.72;5072109;27;45614;-82
2021/11/15 10:26:55;;;;;;;;;49.00;34.75;;;;;10.39;67.58;102319.34;5067730;28;45430;-82
2021/11/15 10:29:34;;;;;;;;;52.75;38.00;;;;;10.37;67.67;102315.88;5070270;27;45914;-82
2021/11/15 10:32:04;;;;;;;;;44.50;35.75;;;;;10.36;67.48;102325.50;5067740;27;45518;-82
2021/11/15 10:34:37;;;;;;;;;47.75;35.00;;;;;10.32;67.46;102314.13;5068282;27;45557;-82
2021/11/15 10:37:14;;;;;;;;;54.00;39.75;;;;;10.37;67.41;102324.59;5070800;28;45568;-82
2021/11/15 10:39:44;;;;;;;;;51.75;39.25;;;;;10.33;67.67;102329.03;5071278;28;47114;-82
2021/11/15 10:42:30;;;;;;;;;50.50;36.50;;;;;10.31;67.96;102320.28;5071485;28;45512;-82
2021/11/15 10:44:58;;;;;;;;;49.00;38.75;;;;;10.37;67.82;102318.50;5071415;27;45962;-84
2021/11/15 10:47:34;;;;;;;;;47.25;34.50;;;;;10.38;67.63;102320.22;5072672;28;46088;-82
2021/11/15 10:50:18;;;;;;;;;46.25;33.25;;;;;10.38;67.72;102317.59;5070421;27;45580;-83
2021/11/15 10:52:55;;;;;;;;;47.25;34.00;;;;;10.37;67.66;102314.09;5073009;27;46073;-82
2021/11/15 10:56:41;;;;;;;;;8.25;6.75;;;;;11.48;72.64;102299.13;5084191;27;45327;-70
2021/11/15 10:59:14;;;;;;;;;11.25;11.25;;;;;12.63;71.08;102290.50;5042393;28;45446;-70
2021/11/15 11:01:39;;;;;;;;;7.25;6.50;;;;;13.58;69.20;102290.53;5068309;28;45310;-69
2021/11/15 11:04:12;;;;;;;;;7.75;6.00;;;;;14.49;68.06;102288.50;5067685;28;45469;-70
2021/11/15 11:06:55;;;;;;;;;9.00;8.50;;;;;15.35;66.09;102274.84;5055066;28;46523;-70
2021/11/15 11:09:38;;;;;;;;;8.75;6.00;;;;;16.07;64.35;102277.19;5063750;28;45591;-70
2021/11/15 11:12:14;;;;;;;;;5.50;5.00;;;;;16.63;63.40;102264.72;5054643;28;45358;-70
2021/11/15 11:14:40;;;;;;;;;7.50;6.00;;;;;17.15;62.53;102267.38;5082115;27;46451;-70
2021/11/15 11:17:07;;;;;;;;;5.25;5.25;;;;;17.58;61.04;102274.69;5070690;27;46561;-70
2021/11/15 11:19:36;;;;;;;;;6.75;5.75;;;;;17.97;60.32;102270.53;5054905;28;45290;-71
2021/11/15 11:25:29;;;;;;;;;10.25;7.75;;;;;18.69;59.02;102261.44;5054234;28;45528;-70
2021/11/15 11:27:45;;;;;;;;;5.75;3.75;;;;;18.98;57.83;102254.81;5056362;28;46151;-69